createdAt,value
2024-04-14T00:00:16.293Z,16.55
2024-04-14T00:02:43.539Z,16.49
2024-04-14T00:05:10.702Z,16.40
2024-04-14T00:07:38.819Z,16.30
2024-04-14T00:10:06.621Z,16.27
2024-04-14T00:12:33.666Z,16.27
2024-04-14T00:15:00.715Z,16.27
2024-04-14T00:17:27.844Z,16.14
2024-04-14T00:19:55.512Z,16.04
2024-04-14T00:22:23.262Z,16.03
2024-04-14T00:24:50.457Z,16.07
2024-04-14T00:27:17.526Z,16.11
2024-04-14T00:29:44.596Z,16.17
2024-04-14T00:32:12.467Z,16.15
2024-04-14T00:34:39.648Z,16.17
2024-04-14T00:37:06.852Z,16.18
2024-04-14T00:39:33.969Z,16.17
2024-04-14T00:42:02.243Z,16.17
2024-04-14T00:44:29.424Z,16.20
2024-04-14T00:46:56.996Z,16.18
2024-04-14T00:49:25.550Z,16.17
2024-04-14T00:51:54.240Z,16.15
2024-04-14T00:54:22.834Z,16.12
2024-04-14T00:56:50.315Z,16.07
2024-04-14T00:59:17.964Z,16.02
2024-04-14T01:01:45.199Z,16.01
2024-04-14T01:04:12.435Z,16.02
2024-04-14T01:06:40.068Z,15.96
2024-04-14T01:09:10.081Z,15.94
2024-04-14T01:11:37.262Z,15.91
2024-04-14T01:14:06.736Z,15.87
2024-04-14T01:16:38.222Z,15.82
2024-04-14T01:19:06.278Z,15.78
2024-04-14T01:21:38.677Z,15.76
2024-04-14T01:24:06.344Z,15.74
2024-04-14T01:26:33.638Z,15.69
2024-04-14T01:29:00.721Z,15.68
2024-04-14T01:31:27.749Z,15.64
2024-04-14T01:33:55.010Z,15.58
2024-04-14T01:36:22.086Z,15.55
2024-04-14T01:38:49.198Z,15.53
2024-04-14T01:41:16.598Z,15.52
2024-04-14T01:43:43.779Z,15.47
2024-04-14T01:46:10.832Z,15.42
2024-04-14T01:48:37.991Z,15.41
2024-04-14T01:51:05.179Z,15.40
2024-04-14T01:53:32.321Z,15.37
2024-04-14T01:56:00.711Z,15.37
2024-04-14T01:58:28.356Z,15.32
2024-04-14T02:00:55.535Z,15.30
2024-04-14T02:03:22.890Z,15.27
2024-04-14T02:06:00.205Z,15.23
2024-04-14T02:08:28.238Z,15.23
2024-04-14T02:10:55.410Z,15.19
2024-04-14T02:13:22.495Z,15.19
2024-04-14T02:15:49.614Z,15.16
2024-04-14T02:18:16.823Z,15.12
2024-04-14T02:20:45.271Z,15.09
2024-04-14T02:23:12.377Z,15.05
2024-04-14T02:25:40.285Z,15.02
2024-04-14T02:28:07.574Z,15.00
2024-04-14T02:30:35.074Z,14.95
2024-04-14T02:33:02.491Z,14.90
2024-04-14T02:35:29.706Z,14.90
2024-04-14T02:37:56.847Z,14.83
2024-04-14T02:40:24.412Z,14.75
2024-04-14T02:42:51.593Z,14.69
2024-04-14T02:45:18.734Z,14.69
2024-04-14T02:47:46.037Z,14.69
2024-04-14T02:50:13.298Z,14.65
2024-04-14T02:52:40.324Z,14.59
2024-04-14T02:55:07.764Z,14.58
2024-04-14T02:57:35.082Z,14.56
2024-04-14T03:00:02.335Z,14.54
2024-04-14T03:02:29.343Z,14.50
2024-04-14T03:04:56.978Z,14.49
2024-04-14T03:07:24.077Z,14.47
2024-04-14T03:09:54.367Z,14.45
2024-04-14T03:12:21.676Z,14.42
2024-04-14T03:14:48.773Z,14.39
2024-04-14T03:17:15.803Z,14.35
2024-04-14T03:19:43.021Z,14.32
2024-04-14T03:22:10.043Z,14.31
2024-04-14T03:24:37.132Z,14.30
2024-04-14T03:27:04.519Z,14.25
2024-04-14T03:29:34.409Z,14.21
2024-04-14T03:32:01.625Z,14.19
2024-04-14T03:34:28.773Z,14.16
2024-04-14T03:36:56.884Z,14.15
2024-04-14T03:39:24.028Z,14.13
2024-04-14T03:41:51.437Z,14.11
2024-04-14T03:44:18.470Z,14.09
2024-04-14T03:46:45.534Z,14.05
2024-04-14T03:49:13.312Z,14.02
2024-04-14T03:51:43.662Z,14.02
2024-04-14T03:54:13.766Z,13.98
2024-04-14T03:56:41.361Z,13.98
2024-04-14T03:59:08.530Z,13.98
2024-04-14T04:01:36.949Z,13.99
2024-04-14T04:04:04.354Z,13.99
2024-04-14T04:06:31.589Z,14.01
2024-04-14T04:08:58.643Z,14.05
2024-04-14T04:11:25.800Z,14.07
2024-04-14T04:13:54.374Z,14.10
2024-04-14T04:16:21.746Z,14.15
2024-04-14T04:18:51.967Z,14.20
2024-04-14T04:21:19.348Z,14.26
2024-04-14T04:23:49.120Z,14.32
2024-04-14T04:26:16.220Z,14.42
2024-04-14T04:28:43.251Z,14.48
2024-04-14T04:31:14.153Z,14.59
2024-04-14T04:33:41.871Z,14.70
2024-04-14T04:36:09.471Z,14.78
2024-04-14T04:38:36.532Z,14.90
2024-04-14T04:41:04.714Z,14.98
2024-04-14T04:43:31.833Z,14.99
2024-04-14T04:45:59.102Z,14.98
2024-04-14T04:48:26.495Z,15.07
2024-04-14T04:50:53.720Z,15.14
2024-04-14T04:53:20.827Z,15.19
2024-04-14T04:55:48.731Z,15.34
2024-04-14T04:58:16.192Z,15.51
2024-04-14T05:00:55.441Z,15.71
2024-04-14T05:03:22.803Z,15.94
2024-04-14T05:06:01.690Z,16.14
2024-04-14T05:08:29.044Z,16.41
2024-04-14T05:10:57.495Z,16.66
2024-04-14T05:13:25.963Z,16.93
2024-04-14T05:15:53.824Z,17.10
2024-04-14T05:18:23.352Z,17.29
2024-04-14T05:20:50.620Z,17.60
2024-04-14T05:23:17.662Z,17.96
2024-04-14T05:25:50.166Z,18.38
2024-04-14T05:28:17.412Z,18.65
2024-04-14T05:30:44.555Z,18.87
2024-04-14T05:33:12.364Z,19.14
2024-04-14T05:35:39.671Z,19.35
2024-04-14T05:38:06.710Z,19.57
2024-04-14T05:40:33.832Z,19.74
2024-04-14T05:43:00.917Z,19.89
2024-04-14T05:45:30.072Z,20.12
2024-04-14T05:47:57.344Z,20.22
2024-04-14T05:50:24.547Z,20.35
2024-04-14T05:52:52.735Z,20.52
2024-04-14T05:55:20.389Z,20.65
2024-04-14T05:57:47.491Z,20.87
2024-04-14T06:00:14.568Z,21.06
2024-04-14T06:02:43.524Z,21.25
2024-04-14T06:05:10.844Z,21.45
2024-04-14T06:07:38.005Z,21.67
2024-04-14T06:10:05.630Z,21.78
2024-04-14T06:12:32.929Z,22.01
2024-04-14T06:15:00.656Z,22.20
2024-04-14T06:17:29.434Z,22.46
2024-04-14T06:19:57.658Z,22.71
2024-04-14T06:22:24.828Z,22.92
2024-04-14T06:24:52.028Z,23.11
2024-04-14T06:27:19.170Z,23.21
2024-04-14T06:29:46.307Z,23.35
2024-04-14T06:32:13.375Z,23.44
2024-04-14T06:34:40.615Z,23.58
2024-04-14T06:37:07.711Z,23.72
2024-04-14T06:39:35.025Z,23.77
2024-04-14T06:42:03.795Z,23.84
2024-04-14T06:44:30.869Z,23.87
2024-04-14T06:46:58.541Z,23.88
2024-04-14T06:49:25.605Z,23.89
2024-04-14T06:51:52.709Z,23.90
2024-04-14T06:54:19.772Z,24.06
2024-04-14T06:56:46.784Z,24.32
2024-04-14T06:59:13.937Z,24.59
2024-04-14T07:01:41.612Z,24.75
2024-04-14T07:04:08.875Z,24.85
2024-04-14T07:06:36.127Z,24.90
2024-04-14T07:09:03.176Z,25.05
2024-04-14T07:11:31.136Z,25.23
2024-04-14T07:13:58.197Z,25.48
2024-04-14T07:16:25.236Z,25.67
2024-04-14T07:18:52.350Z,25.78
2024-04-14T07:21:19.523Z,26.00
2024-04-14T07:23:46.580Z,25.95
2024-04-14T07:26:13.626Z,26.00
2024-04-14T07:28:41.133Z,26.19
2024-04-14T07:31:08.352Z,26.34
2024-04-14T07:33:36.939Z,26.41
2024-04-14T07:36:04.407Z,26.54
2024-04-14T07:38:31.738Z,26.74
2024-04-14T07:40:58.864Z,27.15
2024-04-14T07:43:26.202Z,27.50
2024-04-14T07:45:53.269Z,27.49
2024-04-14T07:48:20.675Z,27.42
2024-04-14T07:50:47.748Z,27.52
2024-04-14T07:53:16.341Z,27.66
2024-04-14T07:55:43.425Z,27.65
2024-04-14T07:58:10.637Z,27.76
2024-04-14T08:00:37.827Z,28.21
2024-04-14T08:03:05.189Z,28.34
2024-04-14T08:05:32.559Z,28.74
2024-04-14T08:07:59.742Z,29.01
2024-04-14T08:10:26.899Z,29.05
2024-04-14T08:12:53.928Z,29.22
2024-04-14T08:15:21.099Z,29.38
2024-04-14T08:17:48.185Z,29.35
2024-04-14T08:20:15.335Z,29.52
2024-04-14T08:22:42.893Z,29.82
2024-04-14T08:25:10.137Z,30.04
2024-04-14T08:27:37.260Z,30.31
2024-04-14T08:30:04.542Z,30.10
2024-04-14T08:32:31.938Z,30.13
2024-04-14T08:34:59.815Z,30.18
2024-04-14T08:37:27.588Z,30.33
2024-04-14T08:39:54.625Z,30.47
2024-04-14T08:42:21.839Z,30.67
2024-04-14T08:44:50.592Z,30.65
2024-04-14T08:47:22.274Z,30.78
2024-04-14T08:49:50.603Z,30.95
2024-04-14T08:52:19.392Z,30.82
2024-04-14T08:54:46.492Z,31.10
2024-04-14T08:57:15.187Z,30.97
2024-04-14T08:59:43.166Z,30.77
2024-04-14T09:02:12.369Z,30.93
2024-04-14T09:04:41.452Z,31.11
2024-04-14T09:07:08.769Z,31.35
2024-04-14T09:09:36.676Z,31.18
2024-04-14T09:12:03.931Z,31.09
2024-04-14T09:14:31.182Z,31.27
2024-04-14T09:16:58.372Z,31.76
2024-04-14T09:19:25.643Z,31.89
2024-04-14T09:21:53.924Z,32.02
2024-04-14T09:24:20.971Z,32.13
2024-04-14T09:26:48.059Z,32.30
2024-04-14T09:29:15.114Z,32.20
2024-04-14T09:31:42.410Z,32.18
2024-04-14T09:34:10.839Z,32.35
2024-04-14T09:36:39.055Z,32.47
2024-04-14T09:39:07.801Z,32.21
2024-04-14T09:41:37.453Z,32.23
2024-04-14T09:44:05.712Z,32.54
2024-04-14T09:46:33.883Z,32.94
2024-04-14T09:49:06.174Z,33.24
2024-04-14T09:51:37.112Z,33.52
2024-04-14T09:54:04.783Z,33.72
2024-04-14T09:56:32.111Z,33.97
2024-04-14T09:58:59.242Z,34.24
2024-04-14T10:01:33.450Z,34.37
2024-04-14T10:04:03.202Z,34.46
2024-04-14T10:06:31.704Z,34.71
2024-04-14T10:08:59.026Z,34.78
2024-04-14T10:11:26.317Z,34.78
2024-04-14T10:13:56.129Z,34.86
2024-04-14T10:16:24.639Z,34.95
2024-04-14T10:18:52.370Z,34.97
2024-04-14T10:21:23.542Z,35.11
2024-04-14T10:23:54.543Z,35.34
2024-04-14T10:26:21.951Z,35.46
2024-04-14T10:28:55.009Z,35.32
2024-04-14T10:31:37.123Z,35.15
2024-04-14T10:34:11.832Z,35.08
2024-04-14T10:36:44.402Z,35.28
2024-04-14T10:39:16.045Z,35.36
2024-04-14T10:41:43.236Z,35.40
2024-04-14T10:44:20.156Z,35.57
2024-04-14T10:46:50.474Z,35.57
2024-04-14T10:49:19.013Z,35.62
2024-04-14T10:51:46.211Z,35.74
2024-04-14T10:54:13.371Z,35.67
2024-04-14T10:56:40.434Z,35.72
2024-04-14T10:59:07.591Z,35.93
2024-04-14T11:01:35.105Z,35.82
2024-04-14T11:04:05.920Z,35.67
2024-04-14T11:06:33.512Z,35.66
2024-04-14T11:09:00.787Z,35.58
2024-04-14T11:11:28.162Z,35.75
2024-04-14T11:13:55.733Z,35.90
2024-04-14T11:16:22.968Z,35.91
2024-04-14T11:18:50.193Z,35.84
2024-04-14T11:21:21.011Z,35.65
2024-04-14T11:23:49.674Z,35.46
2024-04-14T11:26:16.997Z,35.43
2024-04-14T11:28:44.479Z,35.47
2024-04-14T11:31:11.680Z,35.62
2024-04-14T11:33:42.527Z,35.90
2024-04-14T11:36:12.999Z,36.11
2024-04-14T11:38:40.193Z,36.27
2024-04-14T11:41:07.724Z,36.20
2024-04-14T11:43:34.845Z,36.19
2024-04-14T11:46:02.025Z,36.12
2024-04-14T11:48:29.190Z,35.84
2024-04-14T11:50:56.456Z,35.82
2024-04-14T11:53:23.516Z,35.63
2024-04-14T11:55:50.607Z,35.69
2024-04-14T11:58:21.133Z,35.81
2024-04-14T12:00:48.599Z,35.79
2024-04-14T12:03:16.001Z,35.83
2024-04-14T12:05:43.043Z,35.92
2024-04-14T12:08:10.250Z,36.08
2024-04-14T12:10:37.547Z,36.11
2024-04-14T12:13:06.463Z,36.19
2024-04-14T12:15:33.706Z,35.84
2024-04-14T12:18:01.002Z,35.34
2024-04-14T12:20:28.333Z,35.09
2024-04-14T12:22:58.660Z,35.24
2024-04-14T12:25:27.235Z,35.04
2024-04-14T12:27:54.650Z,34.91
2024-04-14T12:30:26.887Z,35.02
2024-04-14T12:33:00.325Z,35.22
2024-04-14T12:35:27.424Z,35.43
2024-04-14T12:37:54.733Z,35.56
2024-04-14T12:40:21.909Z,35.62
2024-04-14T12:42:49.144Z,35.63
2024-04-14T12:45:16.516Z,35.59
2024-04-14T12:47:43.532Z,35.51
2024-04-14T12:50:10.686Z,35.25
2024-04-14T12:52:37.803Z,35.14
2024-04-14T12:55:05.250Z,35.13
2024-04-14T12:57:32.585Z,35.16
2024-04-14T12:59:59.616Z,35.20
2024-04-14T13:02:26.687Z,34.99
2024-04-14T13:04:53.811Z,34.74
2024-04-14T13:07:20.841Z,34.73
2024-04-14T13:09:48.116Z,34.53
2024-04-14T13:12:15.215Z,34.15
2024-04-14T13:14:42.382Z,33.77
2024-04-14T13:17:09.432Z,33.60
2024-04-14T13:19:36.487Z,33.60
2024-04-14T13:22:03.988Z,33.46
2024-04-14T13:24:31.211Z,33.56
2024-04-14T13:26:58.374Z,33.73
2024-04-14T13:29:25.646Z,33.84
2024-04-14T13:31:52.660Z,33.99
2024-04-14T13:34:20.122Z,34.00
2024-04-14T13:36:47.188Z,33.92
2024-04-14T13:39:14.446Z,33.78
2024-04-14T13:41:41.667Z,33.69
2024-04-14T13:44:08.787Z,33.60
2024-04-14T13:46:38.591Z,33.51
2024-04-14T13:49:05.976Z,33.56
2024-04-14T13:51:33.026Z,33.62
2024-04-14T13:54:00.147Z,33.71
2024-04-14T13:56:27.154Z,33.81
2024-04-14T13:58:54.388Z,33.90
2024-04-14T14:01:21.653Z,33.94
2024-04-14T14:03:48.816Z,33.83
2024-04-14T14:06:16.250Z,33.64
2024-04-14T14:08:43.306Z,33.41
2024-04-14T14:11:10.339Z,33.31
2024-04-14T14:13:37.526Z,33.22
2024-04-14T14:16:06.280Z,33.03
2024-04-14T14:18:33.542Z,33.00
2024-04-14T14:21:00.571Z,32.86
2024-04-14T14:23:27.576Z,32.70
2024-04-14T14:25:54.828Z,32.56
2024-04-14T14:28:21.928Z,32.31
2024-04-14T14:30:49.086Z,32.02
2024-04-14T14:33:37.217Z,31.72
2024-04-14T14:36:22.845Z,31.60
2024-04-14T14:38:49.941Z,31.49
2024-04-14T14:41:17.270Z,31.33
2024-04-14T14:43:44.616Z,31.16
2024-04-14T14:46:12.001Z,30.95
2024-04-14T14:48:40.781Z,30.81
2024-04-14T14:51:08.127Z,30.66
2024-04-14T14:53:35.240Z,30.50
2024-04-14T14:56:02.366Z,30.30
2024-04-14T14:58:29.448Z,30.14
2024-04-14T15:01:01.042Z,30.16
2024-04-14T15:03:28.163Z,30.17
2024-04-14T15:05:55.242Z,30.11
2024-04-14T15:08:22.404Z,30.07
2024-04-14T15:10:54.324Z,30.07
2024-04-14T15:13:22.911Z,30.09
2024-04-14T15:15:53.775Z,30.08
2024-04-14T15:18:21.822Z,30.04
2024-04-14T15:20:49.316Z,29.87
2024-04-14T15:23:19.859Z,29.70
2024-04-14T15:25:46.935Z,29.66
2024-04-14T15:28:24.917Z,29.63
2024-04-14T15:30:56.844Z,29.54
2024-04-14T15:33:24.006Z,29.47
2024-04-14T15:35:51.185Z,29.45
2024-04-14T15:38:18.541Z,29.42
2024-04-14T15:40:49.162Z,29.27
2024-04-14T15:43:19.025Z,29.16
2024-04-14T15:45:46.503Z,29.05
2024-04-14T15:48:13.767Z,28.97
2024-04-14T15:50:40.834Z,28.86
2024-04-14T15:53:08.445Z,28.74
2024-04-14T15:55:41.560Z,28.62
2024-04-14T15:58:08.790Z,28.55
2024-04-14T16:00:36.011Z,28.49
2024-04-14T16:03:03.346Z,28.45
2024-04-14T16:05:31.772Z,28.38
2024-04-14T16:07:58.982Z,28.31
2024-04-14T16:10:26.452Z,28.24
2024-04-14T16:12:53.503Z,28.15
2024-04-14T16:15:20.594Z,28.06
2024-04-14T16:17:47.696Z,27.96
2024-04-14T16:20:14.973Z,27.85
2024-04-14T16:22:42.233Z,27.73
2024-04-14T16:25:09.432Z,27.63
2024-04-14T16:27:37.154Z,27.50
2024-04-14T16:30:04.953Z,27.33
2024-04-14T16:32:32.196Z,27.21
2024-04-14T16:34:59.673Z,27.01
2024-04-14T16:37:26.763Z,26.89
2024-04-14T16:39:53.916Z,26.79
2024-04-14T16:42:20.958Z,26.73
2024-04-14T16:44:48.156Z,26.62
2024-04-14T16:47:15.184Z,26.42
2024-04-14T16:49:44.001Z,26.22
2024-04-14T16:52:11.834Z,25.96
2024-04-14T16:54:39.526Z,25.89
2024-04-14T16:57:07.983Z,25.81
2024-04-14T16:59:37.418Z,25.75
2024-04-14T17:02:05.070Z,25.67
2024-04-14T17:04:32.294Z,25.55
2024-04-14T17:07:01.409Z,25.34
2024-04-14T17:09:28.456Z,25.16
2024-04-14T17:11:55.465Z,25.06
2024-04-14T17:14:22.818Z,24.91
2024-04-14T17:16:49.919Z,24.80
2024-04-14T17:19:17.450Z,24.51
2024-04-14T17:21:44.609Z,24.24
2024-04-14T17:24:11.878Z,24.11
2024-04-14T17:26:38.912Z,24.01
2024-04-14T17:29:08.807Z,23.89
2024-04-14T17:31:37.650Z,23.81
2024-04-14T17:34:05.295Z,23.74
2024-04-14T17:36:32.330Z,23.67
2024-04-14T17:38:59.550Z,23.56
2024-04-14T17:41:26.613Z,23.47
2024-04-14T17:43:53.739Z,23.38
2024-04-14T17:46:20.787Z,23.26
2024-04-14T17:48:47.900Z,23.17
2024-04-14T17:51:15.099Z,23.02
2024-04-14T17:53:44.601Z,22.83
2024-04-14T17:56:11.656Z,22.78
2024-04-14T17:58:39.451Z,22.77
2024-04-14T18:01:06.638Z,22.75
2024-04-14T18:03:33.935Z,22.72
2024-04-14T18:06:01.064Z,22.59
2024-04-14T18:08:28.196Z,22.52
2024-04-14T18:10:55.229Z,22.39
2024-04-14T18:13:22.267Z,22.30
2024-04-14T18:15:49.691Z,22.17
2024-04-14T18:18:17.166Z,22.14
2024-04-14T18:20:47.493Z,22.11
2024-04-14T18:23:15.332Z,22.08
2024-04-14T18:25:42.376Z,22.09
2024-04-14T18:28:09.539Z,22.02
2024-04-14T18:30:36.951Z,21.94
2024-04-14T18:33:05.582Z,21.90
2024-04-14T18:35:32.758Z,21.85
2024-04-14T18:37:59.772Z,21.83
2024-04-14T18:40:26.986Z,21.78
2024-04-14T18:42:54.130Z,21.71
2024-04-14T18:45:21.234Z,21.64
2024-04-14T18:47:48.350Z,21.59
2024-04-14T18:50:15.675Z,21.54
2024-04-14T18:52:42.941Z,21.45
2024-04-14T18:55:10.065Z,21.38
2024-04-14T18:57:37.222Z,21.28
2024-04-14T19:00:04.704Z,21.20
2024-04-14T19:02:31.760Z,21.16
2024-04-14T19:04:58.802Z,21.15
2024-04-14T19:07:26.744Z,21.11
2024-04-14T19:09:53.840Z,21.06
2024-04-14T19:12:20.965Z,21.01
2024-04-14T19:14:47.983Z,20.95
2024-04-14T19:17:17.301Z,20.90
2024-04-14T19:19:44.506Z,20.87
2024-04-14T19:22:11.547Z,20.82
2024-04-14T19:24:38.844Z,20.75
2024-04-14T19:27:06.028Z,20.67
2024-04-14T19:29:33.141Z,20.59
2024-04-14T19:32:00.285Z,20.52
2024-04-14T19:34:27.340Z,20.45
2024-04-14T19:36:55.567Z,20.35
2024-04-14T19:39:22.682Z,20.31
2024-04-14T19:41:49.755Z,20.27
2024-04-14T19:44:16.787Z,20.26
2024-04-14T19:46:44.006Z,20.25
2024-04-14T19:49:11.256Z,20.20
2024-04-14T19:51:39.335Z,20.17
2024-04-14T19:54:06.367Z,20.11
2024-04-14T19:56:33.471Z,20.05
2024-04-14T19:59:00.496Z,19.96
2024-04-14T20:01:27.752Z,19.89
2024-04-14T20:03:55.005Z,19.84
2024-04-14T20:06:22.239Z,19.79
2024-04-14T20:08:49.304Z,19.75
2024-04-14T20:11:16.365Z,19.71
2024-04-14T20:13:43.421Z,19.64
2024-04-14T20:16:10.641Z,19.59
2024-04-14T20:18:37.933Z,19.53
2024-04-14T20:21:06.572Z,19.49
2024-04-14T20:23:34.596Z,19.43
2024-04-14T20:26:02.100Z,19.39
2024-04-14T20:28:29.139Z,19.31
2024-04-14T20:30:56.183Z,19.25
2024-04-14T20:33:23.468Z,19.16
2024-04-14T20:35:58.238Z,19.11
2024-04-14T20:38:26.136Z,19.05
2024-04-14T20:40:56.786Z,18.99
2024-04-14T20:43:23.811Z,18.96
2024-04-14T20:45:51.176Z,18.93
2024-04-14T20:48:18.454Z,18.90
2024-04-14T20:50:45.831Z,18.79
2024-04-14T20:53:12.891Z,18.68
2024-04-14T20:55:40.817Z,18.67
2024-04-14T20:58:07.986Z,18.67
2024-04-14T21:00:41.548Z,18.67
2024-04-14T21:03:08.900Z,18.71
2024-04-14T21:05:36.046Z,18.73
2024-04-14T21:08:03.404Z,18.74
2024-04-14T21:10:31.934Z,18.76
2024-04-14T21:12:59.074Z,18.75
2024-04-14T21:15:31.815Z,18.73
2024-04-14T21:17:59.036Z,18.69
2024-04-14T21:20:26.397Z,18.67
2024-04-14T21:22:53.449Z,18.67
2024-04-14T21:25:20.513Z,18.62
2024-04-14T21:27:47.714Z,18.59
2024-04-14T21:30:14.838Z,18.56
2024-04-14T21:32:41.926Z,18.53
2024-04-14T21:35:09.199Z,18.49
2024-04-14T21:37:36.350Z,18.42
2024-04-14T21:40:03.493Z,18.37
2024-04-14T21:42:30.601Z,18.35
2024-04-14T21:44:57.909Z,18.33
2024-04-14T21:47:25.076Z,18.31
2024-04-14T21:49:56.256Z,18.28
2024-04-14T21:52:23.292Z,18.22
2024-04-14T21:54:53.482Z,18.20
2024-04-14T21:57:20.637Z,18.19
2024-04-14T21:59:47.699Z,18.19
2024-04-14T22:02:14.779Z,18.20
2024-04-14T22:04:41.948Z,18.16
2024-04-14T22:07:09.111Z,18.11
2024-04-14T22:09:36.235Z,18.02
2024-04-14T22:12:03.422Z,17.94
2024-04-14T22:14:30.446Z,17.89
2024-04-14T22:16:57.536Z,17.86
2024-04-14T22:19:24.828Z,17.79
2024-04-14T22:21:51.959Z,17.76
2024-04-14T22:24:19.474Z,17.74
2024-04-14T22:26:46.510Z,17.70
2024-04-14T22:29:14.173Z,17.67
2024-04-14T22:31:41.529Z,17.66
2024-04-14T22:34:08.594Z,17.62
2024-04-14T22:36:36.048Z,17.61
2024-04-14T22:39:03.780Z,17.59
2024-04-14T22:41:30.833Z,17.58
2024-04-14T22:43:58.001Z,17.57
2024-04-14T22:46:25.176Z,17.51
2024-04-14T22:48:52.300Z,17.48
2024-04-14T22:51:19.366Z,17.44
2024-04-14T22:53:51.913Z,17.39
2024-04-14T22:56:19.486Z,17.31
2024-04-14T22:58:46.752Z,17.30
2024-04-14T23:01:13.923Z,17.21
2024-04-14T23:03:41.592Z,17.16
2024-04-14T23:06:12.265Z,17.13
2024-04-14T23:08:39.339Z,17.04
2024-04-14T23:11:06.442Z,17.00
2024-04-14T23:13:33.507Z,16.96
2024-04-14T23:16:01.432Z,16.91
2024-04-14T23:18:28.600Z,16.84
2024-04-14T23:20:56.260Z,16.79
2024-04-14T23:23:23.307Z,16.76
2024-04-14T23:25:51.139Z,16.74
2024-04-14T23:28:18.296Z,16.71
2024-04-14T23:30:45.396Z,16.65
2024-04-14T23:33:12.512Z,16.62
2024-04-14T23:35:40.010Z,16.60
2024-04-14T23:38:07.113Z,16.58
2024-04-14T23:40:34.253Z,16.61
2024-04-14T23:43:01.640Z,16.61
2024-04-14T23:45:29.101Z,16.61
2024-04-14T23:47:56.323Z,16.61
2024-04-14T23:50:23.438Z,16.62
2024-04-14T23:52:50.488Z,16.65
2024-04-14T23:55:17.611Z,16.67
2024-04-14T23:57:44.768Z,16.67
